sensor_id;sensor_type;location;lat;lon;timestamp;pressure;altitude;pressure_sealevel;temperature;humidity
7333;BME280;3707;43.618;25.342;2023-06-22T00:02:05;100352.41;;;23.22;100.00
7333;BME280;3707;43.618;25.342;2023-06-22T00:04:32;100339.00;;;23.29;100.00
7333;BME280;3707;43.618;25.342;2023-06-22T00:06:59;100320.66;;;23.22;100.00
7333;BME280;3707;43.618;25.342;2023-06-22T00:09:26;100345.75;;;23.37;100.00
7333;BME280;3707;43.618;25.342;2023-06-22T00:11:54;100350.28;;;23.34;100.00
7333;BME280;3707;43.618;25.342;2023-06-22T00:14:20;100336.47;;;23.26;100.00
7333;BME280;3707;43.618;25.342;2023-06-22T00:16:47;100333.50;;;23.35;100.00
7333;BME280;3707;43.618;25.342;2023-06-22T00:19:15;100334.59;;;23.29;100.00
7333;BME280;3707;43.618;25.342;2023-06-22T00:21:41;100348.16;;;23.46;100.00
7333;BME280;3707;43.618;25.342;2023-06-22T00:24:12;100363.06;;;23.49;100.00
7333;BME280;3707;43.618;25.342;2023-06-22T00:26:39;100359.19;;;23.59;100.00
7333;BME280;3707;43.618;25.342;2023-06-22T00:29:07;100371.00;;;23.75;100.00
7333;BME280;3707;43.618;25.342;2023-06-22T00:31:34;100373.25;;;23.61;100.00
7333;BME280;3707;43.618;25.342;2023-06-22T00:34:00;100370.75;;;23.56;100.00
7333;BME280;3707;43.618;25.342;2023-06-22T00:36:27;100361.03;;;23.57;100.00
7333;BME280;3707;43.618;25.342;2023-06-22T00:38:54;100354.09;;;23.53;100.00
7333;BME280;3707;43.618;25.342;2023-06-22T00:41:21;100361.22;;;23.51;100.00
7333;BME280;3707;43.618;25.342;2023-06-22T00:43:47;100353.28;;;23.51;100.00
7333;BME280;3707;43.618;25.342;2023-06-22T00:46:16;100357.25;;;23.64;100.00
7333;BME280;3707;43.618;25.342;2023-06-22T00:48:42;100347.91;;;23.54;100.00
7333;BME280;3707;43.618;25.342;2023-06-22T00:51:10;100342.28;;;23.63;100.00
7333;BME280;3707;43.618;25.342;2023-06-22T00:53:37;100332.81;;;23.56;100.00
7333;BME280;3707;43.618;25.342;2023-06-22T00:56:04;100330.91;;;23.61;100.00
7333;BME280;3707;43.618;25.342;2023-06-22T00:58:31;100301.47;;;23.44;100.00
7333;BME280;3707;43.618;25.342;2023-06-22T01:00:58;100325.78;;;23.55;100.00
7333;BME280;3707;43.618;25.342;2023-06-22T01:03:28;100334.13;;;23.69;100.00
7333;BME280;3707;43.618;25.342;2023-06-22T01:05:59;100334.81;;;23.76;100.00
7333;BME280;3707;43.618;25.342;2023-06-22T01:08:33;100335.75;;;23.73;100.00
7333;BME280;3707;43.618;25.342;2023-06-22T01:11:09;100337.47;;;23.74;100.00
7333;BME280;3707;43.618;25.342;2023-06-22T01:13:45;100337.16;;;23.83;100.00
7333;BME280;3707;43.618;25.342;2023-06-22T01:16:17;100335.56;;;23.79;100.00
7333;BME280;3707;43.618;25.342;2023-06-22T01:18:51;100350.13;;;23.91;100.00
7333;BME280;3707;43.618;25.342;2023-06-22T01:21:20;100350.84;;;23.96;100.00
7333;BME280;3707;43.618;25.342;2023-06-22T01:24:04;100354.25;;;23.99;100.00
7333;BME280;3707;43.618;25.342;2023-06-22T01:26:38;100356.19;;;23.94;100.00
7333;BME280;3707;43.618;25.342;2023-06-22T01:29:11;100340.41;;;23.91;100.00
7333;BME280;3707;43.618;25.342;2023-06-22T01:31:40;100353.03;;;23.83;100.00
7333;BME280;3707;43.618;25.342;2023-06-22T01:34:08;100359.41;;;23.79;100.00
7333;BME280;3707;43.618;25.342;2023-06-22T01:36:36;100334.44;;;23.60;100.00
7333;BME280;3707;43.618;25.342;2023-06-22T01:39:05;100351.63;;;23.73;100.00
7333;BME280;3707;43.618;25.342;2023-06-22T01:41:35;100352.50;;;23.74;100.00
7333;BME280;3707;43.618;25.342;2023-06-22T01:44:05;100165.69;;;22.37;100.00
7333;BME280;3707;43.618;25.342;2023-06-22T01:46:34;100354.22;;;23.50;100.00
7333;BME280;3707;43.618;25.342;2023-06-22T01:49:02;100361.72;;;23.36;100.00
7333;BME280;3707;43.618;25.342;2023-06-22T01:51:29;100357.47;;;23.30;100.00
7333;BME280;3707;43.618;25.342;2023-06-22T01:53:56;100350.47;;;23.29;100.00
7333;BME280;3707;43.618;25.342;2023-06-22T01:56:23;100355.69;;;23.31;100.00
7333;BME280;3707;43.618;25.342;2023-06-22T01:58:55;100348.97;;;23.48;100.00
7333;BME280;3707;43.618;25.342;2023-06-22T02:01:28;100335.50;;;23.28;100.00
7333;BME280;3707;43.618;25.342;2023-06-22T02:04:03;100360.97;;;23.31;100.00
7333;BME280;3707;43.618;25.342;2023-06-22T02:06:35;100356.03;;;23.20;100.00
7333;BME280;3707;43.618;25.342;2023-06-22T02:09:08;100366.28;;;23.31;100.00
7333;BME280;3707;43.618;25.342;2023-06-22T02:11:36;100368.16;;;23.27;100.00
7333;BME280;3707;43.618;25.342;2023-06-22T02:14:04;100293.06;;;22.77;100.00
7333;BME280;3707;43.618;25.342;2023-06-22T02:16:33;100369.50;;;23.12;100.00
7333;BME280;3707;43.618;25.342;2023-06-22T02:19:02;100353.94;;;23.03;100.00
7333;BME280;3707;43.618;25.342;2023-06-22T02:21:29;100368.31;;;22.95;100.00
7333;BME280;3707;43.618;25.342;2023-06-22T02:23:57;100373.94;;;22.84;100.00
7333;BME280;3707;43.618;25.342;2023-06-22T02:26:25;100379.78;;;22.94;100.00
7333;BME280;3707;43.618;25.342;2023-06-22T02:28:52;100378.50;;;22.79;100.00
7333;BME280;3707;43.618;25.342;2023-06-22T02:31:18;100373.72;;;22.61;100.00
7333;BME280;3707;43.618;25.342;2023-06-22T02:33:45;100375.59;;;22.57;100.00
7333;BME280;3707;43.618;25.342;2023-06-22T02:36:16;100386.84;;;22.64;100.00
7333;BME280;3707;43.618;25.342;2023-06-22T02:38:48;100394.88;;;22.61;100.00
7333;BME280;3707;43.618;25.342;2023-06-22T02:41:16;100397.53;;;22.61;100.00
7333;BME280;3707;43.618;25.342;2023-06-22T02:43:44;100408.59;;;22.75;100.00
7333;BME280;3707;43.618;25.342;2023-06-22T02:46:12;100364.34;;;22.51;100.00
7333;BME280;3707;43.618;25.342;2023-06-22T02:48:39;100394.78;;;22.64;100.00
7333;BME280;3707;43.618;25.342;2023-06-22T02:51:06;100423.72;;;22.70;100.00
7333;BME280;3707;43.618;25.342;2023-06-22T02:53:34;100423.47;;;22.79;100.00
7333;BME280;3707;43.618;25.342;2023-06-22T02:56:01;100446.31;;;22.80;100.00
7333;BME280;3707;43.618;25.342;2023-06-22T02:58:30;100440.22;;;22.78;100.00
7333;BME280;3707;43.618;25.342;2023-06-22T03:00:58;100421.06;;;22.70;100.00
7333;BME280;3707;43.618;25.342;2023-06-22T03:03:30;100432.19;;;22.81;100.00
7333;BME280;3707;43.618;25.342;2023-06-22T03:05:56;100414.69;;;22.77;100.00
7333;BME280;3707;43.618;25.342;2023-06-22T03:08:23;100426.63;;;22.90;100.00
7333;BME280;3707;43.618;25.342;2023-06-22T03:10:51;100429.75;;;23.04;100.00
7333;BME280;3707;43.618;25.342;2023-06-22T03:13:18;100430.53;;;23.08;100.00
7333;BME280;3707;43.618;25.342;2023-06-22T03:15:45;100421.81;;;23.32;100.00
7333;BME280;3707;43.618;25.342;2023-06-22T03:18:12;100427.75;;;23.68;100.00
7333;BME280;3707;43.618;25.342;2023-06-22T03:20:39;100432.31;;;23.89;100.00
7333;BME280;3707;43.618;25.342;2023-06-22T03:23:05;100432.22;;;24.18;100.00
7333;BME280;3707;43.618;25.342;2023-06-22T03:25:32;100424.25;;;24.43;100.00
7333;BME280;3707;43.618;25.342;2023-06-22T03:28:01;100436.00;;;24.84;100.00
7333;BME280;3707;43.618;25.342;2023-06-22T03:30:28;100440.81;;;25.20;100.00
7333;BME280;3707;43.618;25.342;2023-06-22T03:32:55;100450.69;;;25.61;100.00
7333;BME280;3707;43.618;25.342;2023-06-22T03:35:21;100457.28;;;26.14;100.00
7333;BME280;3707;43.618;25.342;2023-06-22T03:37:48;100456.91;;;26.64;100.00
7333;BME280;3707;43.618;25.342;2023-06-22T03:40:15;100459.09;;;26.93;100.00
7333;BME280;3707;43.618;25.342;2023-06-22T03:42:42;100467.47;;;27.23;100.00
7333;BME280;3707;43.618;25.342;2023-06-22T03:45:10;100462.88;;;27.98;100.00
7333;BME280;3707;43.618;25.342;2023-06-22T03:47:37;100468.19;;;28.17;100.00
7333;BME280;3707;43.618;25.342;2023-06-22T03:50:05;100446.75;;;28.36;97.85
7333;BME280;3707;43.618;25.342;2023-06-22T03:52:32;100470.88;;;28.84;95.72
7333;BME280;3707;43.618;25.342;2023-06-22T03:54:59;100484.22;;;29.33;91.64
7333;BME280;3707;43.618;25.342;2023-06-22T03:57:26;100498.00;;;29.41;89.58
7333;BME280;3707;43.618;25.342;2023-06-22T03:59:56;100489.41;;;29.36;89.11
7333;BME280;3707;43.618;25.342;2023-06-22T04:02:24;100495.84;;;29.47;87.54
7333;BME280;3707;43.618;25.342;2023-06-22T04:04:51;100504.72;;;29.79;85.97
7333;BME280;3707;43.618;25.342;2023-06-22T04:07:18;100502.50;;;29.87;83.55
7333;BME280;3707;43.618;25.342;2023-06-22T04:09:44;100501.16;;;29.79;84.13
7333;BME280;3707;43.618;25.342;2023-06-22T04:12:11;100493.78;;;29.68;83.03
7333;BME280;3707;43.618;25.342;2023-06-22T04:14:38;100495.59;;;29.68;84.29
7333;BME280;3707;43.618;25.342;2023-06-22T04:17:05;100498.69;;;30.07;83.96
7333;BME280;3707;43.618;25.342;2023-06-22T04:19:33;100487.88;;;30.38;80.24
7333;BME280;3707;43.618;25.342;2023-06-22T04:22:00;100494.38;;;30.78;77.79
7333;BME280;3707;43.618;25.342;2023-06-22T04:24:26;100484.75;;;31.45;74.33
7333;BME280;3707;43.618;25.342;2023-06-22T04:26:53;100504.72;;;31.94;69.58
7333;BME280;3707;43.618;25.342;2023-06-22T04:29:21;100510.81;;;31.84;67.63
7333;BME280;3707;43.618;25.342;2023-06-22T04:31:55;100504.53;;;32.24;67.20
7333;BME280;3707;43.618;25.342;2023-06-22T04:34:23;100510.66;;;32.00;66.46
7333;BME280;3707;43.618;25.342;2023-06-22T04:36:54;100513.63;;;32.74;66.61
7333;BME280;3707;43.618;25.342;2023-06-22T04:39:21;100511.03;;;33.35;62.65
7333;BME280;3707;43.618;25.342;2023-06-22T04:41:49;100501.88;;;33.00;61.50
7333;BME280;3707;43.618;25.342;2023-06-22T04:44:18;100510.19;;;33.10;61.12
7333;BME280;3707;43.618;25.342;2023-06-22T04:46:49;100502.97;;;32.72;61.46
7333;BME280;3707;43.618;25.342;2023-06-22T04:49:20;100514.19;;;32.27;62.96
7333;BME280;3707;43.618;25.342;2023-06-22T04:51:47;100505.84;;;32.44;64.80
7333;BME280;3707;43.618;25.342;2023-06-22T04:54:18;100502.34;;;33.19;64.14
7333;BME280;3707;43.618;25.342;2023-06-22T04:56:45;100495.00;;;33.34;62.08
7333;BME280;3707;43.618;25.342;2023-06-22T04:59:12;100504.56;;;33.62;59.48
7333;BME280;3707;43.618;25.342;2023-06-22T05:01:38;100506.75;;;34.17;59.14
7333;BME280;3707;43.618;25.342;2023-06-22T05:04:05;100507.00;;;34.25;57.77
7333;BME280;3707;43.618;25.342;2023-06-22T05:06:33;100505.94;;;34.27;56.00
7333;BME280;3707;43.618;25.342;2023-06-22T05:08:59;100494.19;;;34.85;54.34
7333;BME280;3707;43.618;25.342;2023-06-22T05:11:28;100528.31;;;35.20;52.82
7333;BME280;3707;43.618;25.342;2023-06-22T05:13:55;100520.59;;;34.23;55.20
7333;BME280;3707;43.618;25.342;2023-06-22T05:16:24;100532.31;;;33.26;58.78
7333;BME280;3707;43.618;25.342;2023-06-22T05:18:54;100532.22;;;33.15;60.17
7333;BME280;3707;43.618;25.342;2023-06-22T05:21:26;100539.75;;;32.84;62.83
7333;BME280;3707;43.618;25.342;2023-06-22T05:23:53;100511.47;;;32.66;64.70
7333;BME280;3707;43.618;25.342;2023-06-22T05:26:21;100534.47;;;33.08;62.10
7333;BME280;3707;43.618;25.342;2023-06-22T05:28:49;100514.50;;;33.00;62.05
7333;BME280;3707;43.618;25.342;2023-06-22T05:31:17;100542.25;;;33.74;58.95
7333;BME280;3707;43.618;25.342;2023-06-22T05:33:45;100540.81;;;33.81;57.75
7333;BME280;3707;43.618;25.342;2023-06-22T05:36:12;100547.00;;;34.42;55.13
7333;BME280;3707;43.618;25.342;2023-06-22T05:38:40;100548.59;;;34.91;53.08
7333;BME280;3707;43.618;25.342;2023-06-22T05:41:07;100540.63;;;35.11;52.50
7333;BME280;3707;43.618;25.342;2023-06-22T05:43:34;100527.69;;;34.01;54.43
7333;BME280;3707;43.618;25.342;2023-06-22T05:46:03;100546.78;;;34.56;53.98
7333;BME280;3707;43.618;25.342;2023-06-22T05:48:30;100548.16;;;34.03;55.28
7333;BME280;3707;43.618;25.342;2023-06-22T05:50:57;100550.09;;;34.60;54.17
7333;BME280;3707;43.618;25.342;2023-06-22T05:53:24;100544.41;;;34.75;54.27
7333;BME280;3707;43.618;25.342;2023-06-22T05:55:51;100556.53;;;34.46;55.57
7333;BME280;3707;43.618;25.342;2023-06-22T05:58:18;100561.66;;;34.38;55.42
7333;BME280;3707;43.618;25.342;2023-06-22T06:00:44;100550.91;;;34.38;56.34
7333;BME280;3707;43.618;25.342;2023-06-22T06:03:13;100546.88;;;33.72;57.51
7333;BME280;3707;43.618;25.342;2023-06-22T06:05:43;100502.13;;;32.72;62.44
7333;BME280;3707;43.618;25.342;2023-06-22T06:08:10;100547.28;;;32.40;66.13
7333;BME280;3707;43.618;25.342;2023-06-22T06:10:37;100530.16;;;31.89;67.84
7333;BME280;3707;43.618;25.342;2023-06-22T06:13:04;100545.69;;;32.11;68.96
7333;BME280;3707;43.618;25.342;2023-06-22T06:15:31;100540.81;;;32.69;68.28
7333;BME280;3707;43.618;25.342;2023-06-22T06:17:58;100538.78;;;33.11;66.31
7333;BME280;3707;43.618;25.342;2023-06-22T06:20:26;100520.69;;;33.25;62.84
7333;BME280;3707;43.618;25.342;2023-06-22T06:22:54;100519.34;;;33.56;61.83
7333;BME280;3707;43.618;25.342;2023-06-22T06:25:21;100539.31;;;33.77;61.70
7333;BME280;3707;43.618;25.342;2023-06-22T06:27:49;100550.91;;;34.38;59.99
7333;BME280;3707;43.618;25.342;2023-06-22T06:30:17;100537.25;;;34.17;59.02
7333;BME280;3707;43.618;25.342;2023-06-22T06:32:45;100523.38;;;33.38;60.86
7333;BME280;3707;43.618;25.342;2023-06-22T06:35:14;100547.50;;;32.89;62.74
7333;BME280;3707;43.618;25.342;2023-06-22T06:37:43;100538.78;;;32.60;64.25
7333;BME280;3707;43.618;25.342;2023-06-22T06:40:11;100547.84;;;32.06;65.96
7333;BME280;3707;43.618;25.342;2023-06-22T06:42:40;100531.75;;;32.06;66.67
7333;BME280;3707;43.618;25.342;2023-06-22T06:45:08;100555.41;;;31.99;67.43
7333;BME280;3707;43.618;25.342;2023-06-22T06:47:35;100543.31;;;31.51;71.24
7333;BME280;3707;43.618;25.342;2023-06-22T06:50:02;100540.84;;;30.91;72.07
7333;BME280;3707;43.618;25.342;2023-06-22T06:52:29;100529.50;;;30.28;74.17
7333;BME280;3707;43.618;25.342;2023-06-22T06:54:57;100506.44;;;29.65;79.10
7333;BME280;3707;43.618;25.342;2023-06-22T06:57:24;100530.88;;;29.26;82.35
7333;BME280;3707;43.618;25.342;2023-06-22T06:59:54;100519.16;;;29.13;86.84
7333;BME280;3707;43.618;25.342;2023-06-22T07:02:21;100503.88;;;29.32;86.85
7333;BME280;3707;43.618;25.342;2023-06-22T07:04:48;100519.47;;;29.55;84.24
7333;BME280;3707;43.618;25.342;2023-06-22T07:07:15;100522.50;;;29.65;84.47
7333;BME280;3707;43.618;25.342;2023-06-22T07:09:42;100517.13;;;29.80;85.21
7333;BME280;3707;43.618;25.342;2023-06-22T07:12:10;100527.50;;;29.71;83.80
7333;BME280;3707;43.618;25.342;2023-06-22T07:14:37;100527.19;;;29.92;82.02
7333;BME280;3707;43.618;25.342;2023-06-22T07:17:04;100524.13;;;29.98;80.57
7333;BME280;3707;43.618;25.342;2023-06-22T07:19:32;100520.69;;;29.65;82.02
7333;BME280;3707;43.618;25.342;2023-06-22T07:21:59;100525.09;;;29.82;80.70
7333;BME280;3707;43.618;25.342;2023-06-22T07:24:26;100511.41;;;29.24;79.01
7333;BME280;3707;43.618;25.342;2023-06-22T07:26:53;100523.53;;;29.31;78.95
7333;BME280;3707;43.618;25.342;2023-06-22T07:29:21;100526.81;;;29.51;80.83
7333;BME280;3707;43.618;25.342;2023-06-22T07:31:49;100526.09;;;29.79;82.27
7333;BME280;3707;43.618;25.342;2023-06-22T07:34:16;100524.91;;;29.38;78.85
7333;BME280;3707;43.618;25.342;2023-06-22T07:36:43;100525.91;;;29.82;78.53
7333;BME280;3707;43.618;25.342;2023-06-22T07:39:10;100529.53;;;30.13;76.67
7333;BME280;3707;43.618;25.342;2023-06-22T07:41:38;100530.50;;;30.12;74.17
7333;BME280;3707;43.618;25.342;2023-06-22T07:44:05;100528.78;;;30.11;75.99
7333;BME280;3707;43.618;25.342;2023-06-22T07:46:34;100521.97;;;29.74;76.64
7333;BME280;3707;43.618;25.342;2023-06-22T07:49:02;100532.34;;;29.95;79.19
7333;BME280;3707;43.618;25.342;2023-06-22T07:51:28;100522.78;;;29.91;75.31
7333;BME280;3707;43.618;25.342;2023-06-22T07:53:55;100531.78;;;30.20;77.16
7333;BME280;3707;43.618;25.342;2023-06-22T07:56:22;100508.38;;;30.24;74.95
7333;BME280;3707;43.618;25.342;2023-06-22T07:58:49;100520.75;;;30.40;75.05
7333;BME280;3707;43.618;25.342;2023-06-22T08:01:16;100526.16;;;30.55;72.25
7333;BME280;3707;43.618;25.342;2023-06-22T08:03:47;100523.59;;;30.37;70.28
7333;BME280;3707;43.618;25.342;2023-06-22T08:06:14;100522.69;;;30.23;71.78
7333;BME280;3707;43.618;25.342;2023-06-22T08:08:41;100477.13;;;30.24;68.93
7333;BME280;3707;43.618;25.342;2023-06-22T08:11:09;100528.41;;;30.17;69.00
7333;BME280;3707;43.618;25.342;2023-06-22T08:13:35;100521.56;;;30.27;68.18
7333;BME280;3707;43.618;25.342;2023-06-22T08:16:02;100525.75;;;30.17;68.40
7333;BME280;3707;43.618;25.342;2023-06-22T08:18:29;100521.22;;;29.87;72.02
7333;BME280;3707;43.618;25.342;2023-06-22T08:20:57;100490.72;;;30.06;71.84
7333;BME280;3707;43.618;25.342;2023-06-22T08:23:24;100517.19;;;30.40;68.62
7333;BME280;3707;43.618;25.342;2023-06-22T08:25:51;100510.06;;;30.11;68.48
7333;BME280;3707;43.618;25.342;2023-06-22T08:28:18;100516.63;;;30.35;71.71
7333;BME280;3707;43.618;25.342;2023-06-22T08:30:45;100520.34;;;30.62;68.51
7333;BME280;3707;43.618;25.342;2023-06-22T08:33:12;100522.56;;;30.70;68.46
7333;BME280;3707;43.618;25.342;2023-06-22T08:35:39;100518.81;;;30.58;67.69
7333;BME280;3707;43.618;25.342;2023-06-22T08:38:07;100517.13;;;30.71;66.80
7333;BME280;3707;43.618;25.342;2023-06-22T08:40:34;100516.47;;;30.82;64.40
7333;BME280;3707;43.618;25.342;2023-06-22T08:43:01;100510.75;;;31.02;65.71
7333;BME280;3707;43.618;25.342;2023-06-22T08:45:27;100512.00;;;31.25;64.78
7333;BME280;3707;43.618;25.342;2023-06-22T08:47:54;100510.16;;;31.11;62.66
7333;BME280;3707;43.618;25.342;2023-06-22T08:50:21;100517.50;;;31.36;59.95
7333;BME280;3707;43.618;25.342;2023-06-22T08:52:48;100516.13;;;31.43;60.13
7333;BME280;3707;43.618;25.342;2023-06-22T08:55:16;100520.19;;;31.36;59.02
7333;BME280;3707;43.618;25.342;2023-06-22T08:57:43;100514.72;;;30.95;58.49
7333;BME280;3707;43.618;25.342;2023-06-22T09:00:11;100506.06;;;31.06;60.63
7333;BME280;3707;43.618;25.342;2023-06-22T09:02:42;100503.06;;;31.24;59.59
7333;BME280;3707;43.618;25.342;2023-06-22T09:05:09;100492.66;;;31.20;58.88
7333;BME280;3707;43.618;25.342;2023-06-22T09:07:36;100513.88;;;30.94;59.35
7333;BME280;3707;43.618;25.342;2023-06-22T09:10:04;100513.69;;;30.97;60.70
7333;BME280;3707;43.618;25.342;2023-06-22T09:12:32;100377.50;;;30.49;60.35
7333;BME280;3707;43.618;25.342;2023-06-22T09:14:59;100512.31;;;31.47;58.81
7333;BME280;3707;43.618;25.342;2023-06-22T09:17:27;100497.38;;;31.57;57.86
7333;BME280;3707;43.618;25.342;2023-06-22T09:19:54;100519.09;;;31.67;55.06
7333;BME280;3707;43.618;25.342;2023-06-22T09:22:21;100507.94;;;31.46;56.89
7333;BME280;3707;43.618;25.342;2023-06-22T09:24:48;100515.34;;;31.69;57.87
7333;BME280;3707;43.618;25.342;2023-06-22T09:27:15;100524.19;;;31.43;56.13
7333;BME280;3707;43.618;25.342;2023-06-22T09:29:43;100520.00;;;31.80;55.30
7333;BME280;3707;43.618;25.342;2023-06-22T09:32:10;100518.25;;;31.66;54.43
7333;BME280;3707;43.618;25.342;2023-06-22T09:34:37;100524.72;;;31.76;54.50
7333;BME280;3707;43.618;25.342;2023-06-22T09:37:04;100520.25;;;31.89;53.76
7333;BME280;3707;43.618;25.342;2023-06-22T09:39:31;100520.44;;;31.74;54.40
7333;BME280;3707;43.618;25.342;2023-06-22T09:41:59;100503.50;;;31.45;53.53
7333;BME280;3707;43.618;25.342;2023-06-22T09:44:26;100511.09;;;31.53;53.38
7333;BME280;3707;43.618;25.342;2023-06-22T09:46:54;100515.84;;;31.62;53.33
7333;BME280;3707;43.618;25.342;2023-06-22T09:49:21;100516.34;;;31.54;54.81
7333;BME280;3707;43.618;25.342;2023-06-22T09:51:47;100513.53;;;31.70;53.40
7333;BME280;3707;43.618;25.342;2023-06-22T09:54:15;100519.06;;;31.81;53.46
7333;BME280;3707;43.618;25.342;2023-06-22T09:56:41;100515.75;;;31.90;54.48
7333;BME280;3707;43.618;25.342;2023-06-22T09:59:08;100516.28;;;32.09;52.34
7333;BME280;3707;43.618;25.342;2023-06-22T10:01:35;100513.44;;;32.25;53.48
7333;BME280;3707;43.618;25.342;2023-06-22T10:04:03;100505.66;;;32.72;52.81
7333;BME280;3707;43.618;25.342;2023-06-22T10:06:30;100502.56;;;32.78;50.14
7333;BME280;3707;43.618;25.342;2023-06-22T10:08:57;100515.56;;;32.84;48.63
7333;BME280;3707;43.618;25.342;2023-06-22T10:11:24;100513.75;;;32.85;46.20
7333;BME280;3707;43.618;25.342;2023-06-22T10:13:54;100502.44;;;33.05;45.74
7333;BME280;3707;43.618;25.342;2023-06-22T10:16:24;100499.22;;;33.13;45.59
7333;BME280;3707;43.618;25.342;2023-06-22T10:18:52;100500.06;;;33.01;46.56
7333;BME280;3707;43.618;25.342;2023-06-22T10:21:20;100496.19;;;33.05;44.59
7333;BME280;3707;43.618;25.342;2023-06-22T10:23:47;100496.84;;;33.08;44.77
7333;BME280;3707;43.618;25.342;2023-06-22T10:26:13;100471.03;;;33.06;44.76
7333;BME280;3707;43.618;25.342;2023-06-22T10:28:40;100487.81;;;33.22;43.84
7333;BME280;3707;43.618;25.342;2023-06-22T10:31:07;100484.59;;;32.91;46.21
7333;BME280;3707;43.618;25.342;2023-06-22T10:33:34;100487.41;;;33.03;46.83
7333;BME280;3707;43.618;25.342;2023-06-22T10:36:00;100456.13;;;32.76;44.90
7333;BME280;3707;43.618;25.342;2023-06-22T10:38:29;100479.47;;;32.63;45.22
7333;BME280;3707;43.618;25.342;2023-06-22T10:40:55;100476.44;;;32.80;46.67
7333;BME280;3707;43.618;25.342;2023-06-22T10:43:22;100480.19;;;33.03;46.58
7333;BME280;3707;43.618;25.342;2023-06-22T10:45:49;100473.22;;;32.88;44.49
7333;BME280;3707;43.618;25.342;2023-06-22T10:48:16;100471.28;;;33.03;45.83
7333;BME280;3707;43.618;25.342;2023-06-22T10:50:42;100459.78;;;33.13;46.26
7333;BME280;3707;43.618;25.342;2023-06-22T10:53:09;100465.03;;;33.15;44.67
7333;BME280;3707;43.618;25.342;2023-06-22T10:55:37;100473.88;;;32.91;46.23
7333;BME280;3707;43.618;25.342;2023-06-22T10:58:04;100475.59;;;32.92;46.91
7333;BME280;3707;43.618;25.342;2023-06-22T11:00:31;100464.38;;;32.99;46.09
7333;BME280;3707;43.618;25.342;2023-06-22T11:02:57;100450.75;;;32.76;46.98
7333;BME280;3707;43.618;25.342;2023-06-22T11:05:24;100470.41;;;33.02;46.49
7333;BME280;3707;43.618;25.342;2023-06-22T11:11:18;100454.56;;;33.23;45.66
7333;BME280;3707;43.618;25.342;2023-06-22T11:13:45;100473.41;;;33.23;44.40
7333;BME280;3707;43.618;25.342;2023-06-22T11:16:12;100468.56;;;33.52;44.25
7333;BME280;3707;43.618;25.342;2023-06-22T11:18:39;100450.72;;;33.63;44.12
7333;BME280;3707;43.618;25.342;2023-06-22T11:21:06;100463.31;;;33.98;44.36
7333;BME280;3707;43.618;25.342;2023-06-22T11:23:32;100465.47;;;33.45;42.83
7333;BME280;3707;43.618;25.342;2023-06-22T11:25:59;100454.69;;;33.21;43.84
7333;BME280;3707;43.618;25.342;2023-06-22T11:28:27;100462.50;;;33.73;44.65
7333;BME280;3707;43.618;25.342;2023-06-22T11:30:54;100444.47;;;33.98;43.14
7333;BME280;3707;43.618;25.342;2023-06-22T11:33:21;100449.00;;;34.21;42.58
7333;BME280;3707;43.618;25.342;2023-06-22T11:35:48;100463.72;;;34.50;41.18
7333;BME280;3707;43.618;25.342;2023-06-22T11:38:15;100463.84;;;34.03;40.77
7333;BME280;3707;43.618;25.342;2023-06-22T11:40:42;100467.13;;;33.35;41.30
7333;BME280;3707;43.618;25.342;2023-06-22T11:43:09;100461.03;;;33.57;41.97
7333;BME280;3707;43.618;25.342;2023-06-22T11:45:37;100452.19;;;33.55;41.54
7333;BME280;3707;43.618;25.342;2023-06-22T11:48:04;100461.88;;;33.57;41.32
7333;BME280;3707;43.618;25.342;2023-06-22T11:50:31;100466.28;;;34.06;42.08
7333;BME280;3707;43.618;25.342;2023-06-22T11:53:01;100462.22;;;34.24;41.49
7333;BME280;3707;43.618;25.342;2023-06-22T11:55:28;100455.38;;;34.20;41.06
7333;BME280;3707;43.618;25.342;2023-06-22T11:57:56;100448.06;;;34.44;41.19
7333;BME280;3707;43.618;25.342;2023-06-22T12:00:26;100422.91;;;34.21;41.72
7333;BME280;3707;43.618;25.342;2023-06-22T12:02:54;100452.94;;;34.39;39.99
7333;BME280;3707;43.618;25.342;2023-06-22T12:05:21;100451.84;;;34.30;41.00
7333;BME280;3707;43.618;25.342;2023-06-22T12:07:49;100443.34;;;34.13;41.08
7333;BME280;3707;43.618;25.342;2023-06-22T12:10:17;100452.97;;;34.50;41.40
7333;BME280;3707;43.618;25.342;2023-06-22T12:12:44;100444.88;;;34.28;40.35
7333;BME280;3707;43.618;25.342;2023-06-22T12:15:11;100446.75;;;34.15;41.19
7333;BME280;3707;43.618;25.342;2023-06-22T12:17:38;100429.91;;;34.24;40.97
7333;BME280;3707;43.618;25.342;2023-06-22T12:20:08;100425.75;;;34.20;41.05
7333;BME280;3707;43.618;25.342;2023-06-22T12:22:38;100434.31;;;34.36;40.49
7333;BME280;3707;43.618;25.342;2023-06-22T12:25:06;100435.47;;;34.45;40.71
7333;BME280;3707;43.618;25.342;2023-06-22T12:27:33;100437.81;;;34.82;40.45
7333;BME280;3707;43.618;25.342;2023-06-22T12:29:59;100436.47;;;35.21;40.47
7333;BME280;3707;43.618;25.342;2023-06-22T12:32:26;100438.25;;;35.43;39.63
7333;BME280;3707;43.618;25.342;2023-06-22T12:34:53;100434.03;;;35.72;39.26
7333;BME280;3707;43.618;25.342;2023-06-22T12:37:22;100429.16;;;35.55;38.62
7333;BME280;3707;43.618;25.342;2023-06-22T12:39:49;100422.34;;;35.29;38.41
7333;BME280;3707;43.618;25.342;2023-06-22T12:42:16;100427.16;;;35.14;38.91
7333;BME280;3707;43.618;25.342;2023-06-22T12:44:42;100411.59;;;35.18;39.76
7333;BME280;3707;43.618;25.342;2023-06-22T12:47:10;100393.22;;;35.23;38.91
7333;BME280;3707;43.618;25.342;2023-06-22T12:49:36;100410.41;;;35.43;38.50
7333;BME280;3707;43.618;25.342;2023-06-22T12:52:08;100394.19;;;35.54;38.06
7333;BME280;3707;43.618;25.342;2023-06-22T12:54:36;100406.28;;;35.82;37.67
7333;BME280;3707;43.618;25.342;2023-06-22T12:57:04;100416.91;;;36.15;36.84
7333;BME280;3707;43.618;25.342;2023-06-22T12:59:30;100416.06;;;36.35;36.87
7333;BME280;3707;43.618;25.342;2023-06-22T13:01:57;100413.72;;;36.51;35.63
7333;BME280;3707;43.618;25.342;2023-06-22T13:04:24;100396.63;;;36.71;35.64